Time;durP1;ratioP1;P1;durP2;ratioP2;P2;SDS_P1;SDS_P2;PMS_P1;PMS_P2;Temp;Humidity;BMP_temperature;BMP_pressure;BME280_temperature;BME280_humidity;BME280_pressure;Samples;Min_cycle;Max_cycle;Signal;HPM_P1;HPM_P2
2022/06/21 00:02:06;;;;;;;3.17;2.70;;;;;;;;;;5035740;28;20234;-53
2022/06/21 00:04:34;;;;;;;3.90;2.17;;;;;;;;;;5038681;28;20256;-52
2022/06/21 00:07:02;;;;;;;3.47;2.15;;;;;;;;;;5039151;28;20724;-51
2022/06/21 00:09:28;;;;;;;3.00;2.45;;;;;;;;;;5038367;28;20233;-52
2022/06/21 00:11:55;;;;;;;2.63;2.30;;;;;;;;;;5037574;28;20321;-52
2022/06/21 00:14:21;;;;;;;4.45;2.17;;;;;;;;;;5033270;28;20242;-51
2022/06/21 00:16:47;;;;;;;2.63;2.38;;;;;;;;;;5027892;28;20243;-51
2022/06/21 00:19:18;;;;;;;3.95;2.63;;;;;;;;;;5020371;28;20295;-52
2022/06/21 00:21:47;;;;;;;3.03;2.45;;;;;;;;;;5036657;28;20231;-52
2022/06/21 00:24:13;;;;;;;2.83;2.58;;;;;;;;;;5031477;28;20714;-52
2022/06/21 00:26:40;;;;;;;7.00;3.42;;;;;;;;;;5035128;28;20231;-51
2022/06/21 00:29:06;;;;;;;2.97;2.78;;;;;;;;;;5025165;28;20232;-53
2022/06/21 00:31:33;;;;;;;3.53;2.88;;;;;;;;;;5032905;28;20240;-52
2022/06/21 00:34:03;;;;;;;3.10;2.25;;;;;;;;;;5028355;28;20232;-50
2022/06/21 00:36:31;;;;;;;3.22;2.60;;;;;;;;;;5032051;28;20238;-52
2022/06/21 00:39:00;;;;;;;6.28;2.40;;;;;;;;;;5016103;28;20231;-51
2022/06/21 00:41:33;;;;;;;3.40;3.20;;;;;;;;;;5037337;28;20227;-52
2022/06/21 00:44:02;;;;;;;6.40;3.33;;;;;;;;;;5031045;28;20224;-52
2022/06/21 00:46:32;;;;;;;7.68;4.53;;;;;;;;;;5024625;28;20268;-52
2022/06/21 00:49:00;;;;;;;5.82;2.65;;;;;;;;;;5037489;28;20230;-51
2022/06/21 00:51:28;;;;;;;3.72;2.97;;;;;;;;;;5028028;28;20232;-52
2022/06/21 00:53:57;;;;;;;3.47;2.90;;;;;;;;;;5043921;28;20228;-52
2022/06/21 00:56:28;;;;;;;3.90;3.20;;;;;;;;;;5032376;28;20232;-51
2022/06/21 00:58:54;;;;;;;4.53;3.35;;;;;;;;;;5031230;28;20696;-52
2022/06/21 01:01:22;;;;;;;4.45;3.30;;;;;;;;;;5040215;28;20237;-52
2022/06/21 01:03:51;;;;;;;3.53;3.00;;;;;;;;;;5037900;28;20233;-51
2022/06/21 01:06:19;;;;;;;3.30;2.42;;;;;;;;;;5034704;28;20240;-52
2022/06/21 01:08:49;;;;;;;2.88;2.58;;;;;;;;;;5036312;28;20229;-52
2022/06/21 01:11:19;;;;;;;4.50;3.10;;;;;;;;;;5036274;28;20248;-51
2022/06/21 01:13:50;;;;;;;3.17;2.83;;;;;;;;;;5031330;28;20243;-51
2022/06/21 01:16:17;;;;;;;3.38;3.08;;;;;;;;;;5032196;28;20588;-50
2022/06/21 01:18:44;;;;;;;7.15;3.63;;;;;;;;;;5038359;28;20236;-51
2022/06/21 01:21:12;;;;;;;4.55;3.50;;;;;;;;;;5042604;28;20496;-52
2022/06/21 01:23:55;;;;;;;4.70;3.17;;;;;;;;;;5043858;28;20228;-51
2022/06/21 01:26:46;;;;;;;5.43;3.08;;;;;;;;;;5036032;28;20894;-52
2022/06/21 01:29:15;;;;;;;5.03;2.88;;;;;;;;;;5016371;28;20730;-52
2022/06/21 01:31:42;;;;;;;2.85;2.65;;;;;;;;;;5044277;28;20322;-53
2022/06/21 01:34:15;;;;;;;4.30;3.20;;;;;;;;;;5043018;28;20232;-52
2022/06/21 01:36:41;;;;;;;3.20;3.00;;;;;;;;;;5043865;28;20228;-52
2022/06/21 01:39:09;;;;;;;3.45;2.80;;;;;;;;;;5043202;28;20227;-52
2022/06/21 01:41:37;;;;;;;3.92;3.30;;;;;;;;;;5038521;28;20277;-50
2022/06/21 01:44:05;;;;;;;4.40;3.05;;;;;;;;;;5038315;28;20224;-50
2022/06/21 01:46:33;;;;;;;3.78;3.22;;;;;;;;;;5036857;28;20232;-52
2022/06/21 01:49:00;;;;;;;3.65;3.00;;;;;;;;;;5030852;28;20597;-51
2022/06/21 01:51:30;;;;;;;4.88;3.28;;;;;;;;;;5026663;28;20229;-51
2022/06/21 01:53:58;;;;;;;4.88;3.35;;;;;;;;;;5038555;28;20224;-51
2022/06/21 01:56:26;;;;;;;3.55;3.22;;;;;;;;;;5034196;28;20297;-53
2022/06/21 01:58:55;;;;;;;5.93;3.55;;;;;;;;;;5044466;28;20240;-51
2022/06/21 02:01:24;;;;;;;3.40;3.10;;;;;;;;;;5039274;28;20766;-51
2022/06/21 02:03:53;;;;;;;3.72;3.25;;;;;;;;;;5037463;28;20241;-52
2022/06/21 02:06:21;;;;;;;5.25;3.38;;;;;;;;;;5029392;28;20255;-51
2022/06/21 02:08:49;;;;;;;5.80;3.50;;;;;;;;;;5037923;28;20572;-51
2022/06/21 02:11:18;;;;;;;3.75;3.42;;;;;;;;;;5031276;28;20224;-51
2022/06/21 02:13:46;;;;;;;5.53;3.00;;;;;;;;;;5021154;28;20244;-52
2022/06/21 02:16:15;;;;;;;4.27;3.30;;;;;;;;;;5036455;28;20232;-52
2022/06/21 02:18:42;;;;;;;3.35;3.15;;;;;;;;;;5036499;28;20605;-53
2022/06/21 02:21:13;;;;;;;3.80;3.40;;;;;;;;;;5033869;28;20259;-53
2022/06/21 02:23:40;;;;;;;3.55;3.25;;;;;;;;;;5022649;28;20247;-53
2022/06/21 02:26:08;;;;;;;4.50;3.33;;;;;;;;;;5033254;28;20256;-51
2022/06/21 02:28:35;;;;;;;3.77;3.47;;;;;;;;;;5022737;28;20252;-50
2022/06/21 02:31:01;;;;;;;3.40;3.10;;;;;;;;;;5022713;28;20251;-53
2022/06/21 02:33:30;;;;;;;5.03;3.13;;;;;;;;;;5028581;28;20335;-51
2022/06/21 02:35:59;;;;;;;3.88;2.78;;;;;;;;;;5030269;28;20234;-53
2022/06/21 02:38:27;;;;;;;3.30;3.00;;;;;;;;;;5030480;28;20247;-52
2022/06/21 02:40:57;;;;;;;5.22;3.05;;;;;;;;;;5039920;28;20232;-51
2022/06/21 02:43:27;;;;;;;4.25;2.75;;;;;;;;;;5019522;28;20240;-51
2022/06/21 02:45:54;;;;;;;4.25;2.92;;;;;;;;;;5032667;28;20243;-53
2022/06/21 02:48:24;;;;;;;3.60;3.17;;;;;;;;;;5033942;28;20239;-52
2022/06/21 02:50:53;;;;;;;3.35;3.05;;;;;;;;;;5034044;28;20228;-52
2022/06/21 02:53:21;;;;;;;5.72;3.92;;;;;;;;;;5020208;28;20486;-50
2022/06/21 02:55:52;;;;;;;4.37;3.50;;;;;;;;;;5031128;28;22680;-51
2022/06/21 02:58:24;;;;;;;3.95;2.97;;;;;;;;;;5042784;28;20319;-51
2022/06/21 03:00:51;;;;;;;2.75;2.55;;;;;;;;;;5041670;28;20310;-51
2022/06/21 03:03:20;;;;;;;3.85;2.72;;;;;;;;;;5043142;28;20235;-52
2022/06/21 03:05:48;;;;;;;4.57;2.97;;;;;;;;;;5037634;28;20236;-51
2022/06/21 03:08:15;;;;;;;7.53;4.57;;;;;;;;;;5043159;28;20228;-53
2022/06/21 03:10:44;;;;;;;5.07;3.70;;;;;;;;;;5039065;28;20285;-52
2022/06/21 03:13:19;;;;;;;3.95;3.13;;;;;;;;;;5029962;28;20223;-52
2022/06/21 03:15:47;;;;;;;5.18;3.88;;;;;;;;;;5030010;28;20235;-52
2022/06/21 03:18:16;;;;;;;5.13;3.67;;;;;;;;;;5045312;28;20232;-51
2022/06/21 03:20:43;;;;;;;4.20;3.83;;;;;;;;;;5028336;28;20355;-51
2022/06/21 03:23:10;;;;;;;4.68;3.90;;;;;;;;;;5042141;28;20232;-51
2022/06/21 03:25:42;;;;;;;5.93;4.13;;;;;;;;;;5037104;28;20227;-51
2022/06/21 03:28:23;;;;;;;4.80;4.03;;;;;;;;;;5030517;28;20902;-52
2022/06/21 03:30:50;;;;;;;5.93;4.00;;;;;;;;;;5037972;28;20239;-52
2022/06/21 03:33:16;;;;;;;6.50;4.23;;;;;;;;;;5030056;28;20607;-52
2022/06/21 03:35:43;;;;;;;5.30;3.90;;;;;;;;;;5023740;28;20234;-51
2022/06/21 03:38:10;;;;;;;4.43;4.03;;;;;;;;;;5039213;28;20224;-50
2022/06/21 03:43:24;;;;;;;5.47;4.35;;;;;;;;;;5031120;28;20717;-51
2022/06/21 03:45:53;;;;;;;6.90;3.95;;;;;;;;;;5031473;28;20239;-51
2022/06/21 03:48:22;;;;;;;7.43;4.17;;;;;;;;;;5020669;28;20237;-52
2022/06/21 03:50:53;;;;;;;10.45;5.07;;;;;;;;;;5039586;28;20228;-52
2022/06/21 03:53:21;;;;;;;7.77;3.80;;;;;;;;;;5039180;28;20409;-52
2022/06/21 03:55:50;;;;;;;6.53;4.35;;;;;;;;;;5038176;28;20235;-52
2022/06/21 03:58:20;;;;;;;7.60;3.92;;;;;;;;;;5036182;28;20227;-52
2022/06/21 04:00:52;;;;;;;4.60;3.70;;;;;;;;;;5036700;28;20231;-52
2022/06/21 04:03:22;;;;;;;4.63;3.85;;;;;;;;;;5023136;28;20233;-52
2022/06/21 04:05:52;;;;;;;5.27;3.17;;;;;;;;;;5016499;28;20236;-51
2022/06/21 04:08:21;;;;;;;5.35;3.15;;;;;;;;;;5029260;28;20707;-51
2022/06/21 04:10:51;;;;;;;6.25;3.17;;;;;;;;;;5038049;28;20605;-51
2022/06/21 04:13:19;;;;;;;3.80;3.13;;;;;;;;;;5042193;28;20239;-51
2022/06/21 04:15:49;;;;;;;3.90;3.53;;;;;;;;;;5037849;28;20228;-51
2022/06/21 04:18:19;;;;;;;7.83;4.47;;;;;;;;;;5034128;28;20315;-52
2022/06/21 04:20:50;;;;;;;4.30;3.45;;;;;;;;;;5028703;28;20248;-51
2022/06/21 04:23:19;;;;;;;5.77;3.10;;;;;;;;;;5026989;28;20617;-51
2022/06/21 04:25:48;;;;;;;7.97;3.88;;;;;;;;;;5032238;28;20232;-51
2022/06/21 04:28:16;;;;;;;3.42;3.13;;;;;;;;;;5041240;28;20228;-51
2022/06/21 04:30:44;;;;;;;5.35;3.55;;;;;;;;;;5020727;28;20233;-52
2022/06/21 04:33:13;;;;;;;3.72;3.42;;;;;;;;;;5038607;28;20335;-52
2022/06/21 04:35:45;;;;;;;5.40;3.50;;;;;;;;;;5040299;28;20372;-51
2022/06/21 04:38:14;;;;;;;9.20;5.22;;;;;;;;;;5024795;28;20692;-51
2022/06/21 04:40:45;;;;;;;5.43;3.38;;;;;;;;;;5029331;28;20242;-51
2022/06/21 04:43:14;;;;;;;4.05;3.33;;;;;;;;;;5034709;28;20236;-51
2022/06/21 04:45:44;;;;;;;7.43;3.72;;;;;;;;;;5028920;28;20695;-51
2022/06/21 04:48:19;;;;;;;9.93;4.05;;;;;;;;;;5025868;28;20232;-53
2022/06/21 04:50:49;;;;;;;5.43;3.28;;;;;;;;;;5029435;28;20234;-52
2022/06/21 04:53:18;;;;;;;4.88;3.75;;;;;;;;;;5033846;28;20239;-51
2022/06/21 04:55:55;;;;;;;5.20;3.20;;;;;;;;;;5029480;28;20229;-51
2022/06/21 04:58:21;;;;;;;4.95;3.25;;;;;;;;;;5018751;28;20236;-51
2022/06/21 05:00:48;;;;;;;10.35;4.55;;;;;;;;;;5026406;28;20282;-51
2022/06/21 05:03:21;;;;;;;4.45;3.33;;;;;;;;;;5045593;28;20319;-53
2022/06/21 05:05:48;;;;;;;7.40;3.38;;;;;;;;;;5038836;28;20718;-51
2022/06/21 05:08:16;;;;;;;8.32;4.65;;;;;;;;;;5042011;28;20235;-52
2022/06/21 05:10:45;;;;;;;4.95;3.50;;;;;;;;;;5031464;28;20235;-52
2022/06/21 05:13:14;;;;;;;5.40;4.70;;;;;;;;;;5029131;28;21023;-51
2022/06/21 05:15:41;;;;;;;7.90;3.67;;;;;;;;;;5029309;28;20228;-51
2022/06/21 05:18:11;;;;;;;5.22;3.63;;;;;;;;;;5022314;28;20229;-53
2022/06/21 05:20:37;;;;;;;4.95;3.65;;;;;;;;;;5034784;28;20243;-53
2022/06/21 05:23:06;;;;;;;10.80;4.90;;;;;;;;;;5032616;28;20235;-51
2022/06/21 05:25:35;;;;;;;4.03;3.55;;;;;;;;;;5021560;28;20239;-52
2022/06/21 05:28:05;;;;;;;8.13;3.25;;;;;;;;;;5035200;28;20319;-51
2022/06/21 05:30:39;;;;;;;8.50;4.00;;;;;;;;;;5042533;28;20227;-51
2022/06/21 05:33:08;;;;;;;5.93;4.18;;;;;;;;;;5033889;28;20231;-51
2022/06/21 05:35:36;;;;;;;6.57;3.25;;;;;;;;;;5037917;28;20240;-51
2022/06/21 05:38:04;;;;;;;5.57;3.63;;;;;;;;;;5032247;28;20228;-50
2022/06/21 05:40:36;;;;;;;5.45;3.42;;;;;;;;;;5036870;28;20239;-51
2022/06/21 05:43:03;;;;;;;4.65;3.10;;;;;;;;;;5030829;28;20698;-52
2022/06/21 05:45:32;;;;;;;7.35;3.35;;;;;;;;;;5028680;28;20232;-52
2022/06/21 05:48:00;;;;;;;5.38;3.60;;;;;;;;;;5035432;28;20223;-52
2022/06/21 05:50:28;;;;;;;3.95;3.15;;;;;;;;;;5043403;28;20253;-52
2022/06/21 05:52:56;;;;;;;6.53;3.70;;;;;;;;;;5039911;28;20243;-51
2022/06/21 05:55:26;;;;;;;6.65;3.70;;;;;;;;;;5039202;28;20235;-51
2022/06/21 05:57:56;;;;;;;8.43;3.65;;;;;;;;;;5043816;28;20242;-51
2022/06/21 06:00:25;;;;;;;6.57;3.38;;;;;;;;;;5025232;28;20301;-52
2022/06/21 06:02:53;;;;;;;6.57;3.00;;;;;;;;;;5031243;28;20249;-52
2022/06/21 06:05:21;;;;;;;3.33;3.03;;;;;;;;;;5050518;28;20663;-50
2022/06/21 06:07:50;;;;;;;5.85;2.97;;;;;;;;;;5039521;28;20635;-52
2022/06/21 06:10:17;;;;;;;6.95;3.25;;;;;;;;;;5026802;28;20237;-52
2022/06/21 06:12:45;;;;;;;4.13;3.22;;;;;;;;;;5022711;28;20237;-51
2022/06/21 06:15:15;;;;;;;5.75;2.95;;;;;;;;;;5035498;28;20238;-51
2022/06/21 06:17:43;;;;;;;3.58;2.95;;;;;;;;;;5041569;28;20231;-51
2022/06/21 06:20:15;;;;;;;7.07;3.08;;;;;;;;;;5037411;28;20315;-51
2022/06/21 06:22:44;;;;;;;7.20;3.03;;;;;;;;;;5039942;28;20260;-51
2022/06/21 06:25:14;;;;;;;4.60;2.80;;;;;;;;;;5031485;28;20235;-52
2022/06/21 06:27:45;;;;;;;5.47;3.05;;;;;;;;;;5026933;28;20275;-51
2022/06/21 06:30:14;;;;;;;7.63;3.33;;;;;;;;;;5021262;28;20232;-53
2022/06/21 06:32:41;;;;;;;5.95;3.50;;;;;;;;;;5037603;28;20790;-52
2022/06/21 06:35:14;;;;;;;6.47;3.00;;;;;;;;;;5036268;28;20228;-52
2022/06/21 06:37:42;;;;;;;8.45;3.47;;;;;;;;;;5035070;28;20243;-51
2022/06/21 06:40:17;;;;;;;5.45;2.72;;;;;;;;;;5045003;28;20232;-51
2022/06/21 06:42:44;;;;;;;7.40;3.38;;;;;;;;;;5040572;28;20311;-51
2022/06/21 06:45:14;;;;;;;9.43;5.85;;;;;;;;;;5041411;28;20239;-52
2022/06/21 06:47:42;;;;;;;4.65;2.85;;;;;;;;;;5035933;28;20893;-51
2022/06/21 06:50:12;;;;;;;6.78;2.65;;;;;;;;;;5033521;28;20229;-52
2022/06/21 06:52:40;;;;;;;4.47;2.50;;;;;;;;;;5027357;28;20246;-52
2022/06/21 06:55:11;;;;;;;4.53;2.65;;;;;;;;;;5030911;28;20232;-51
2022/06/21 06:57:39;;;;;;;5.53;3.83;;;;;;;;;;5036205;28;20235;-51
2022/06/21 07:00:11;;;;;;;8.23;3.63;;;;;;;;;;5038867;28;20224;-51
2022/06/21 07:02:45;;;;;;;5.90;2.60;;;;;;;;;;5040674;28;20266;-51
2022/06/21 07:05:14;;;;;;;4.20;1.85;;;;;;;;;;5034123;28;20646;-53
2022/06/21 07:07:44;;;;;;;4.93;2.53;;;;;;;;;;5033416;28;20239;-53
2022/06/21 07:10:14;;;;;;;6.18;2.60;;;;;;;;;;5041882;28;20239;-51
2022/06/21 07:12:40;;;;;;;3.75;2.53;;;;;;;;;;5034596;28;20260;-51
2022/06/21 07:15:09;;;;;;;7.40;2.65;;;;;;;;;;5035089;28;20224;-52
2022/06/21 07:17:37;;;;;;;5.18;2.40;;;;;;;;;;5030238;28;20236;-51
2022/06/21 07:20:06;;;;;;;2.50;2.08;;;;;;;;;;5038041;28;20227;-52
2022/06/21 07:22:34;;;;;;;6.15;2.03;;;;;;;;;;5029327;28;20267;-52
2022/06/21 07:25:03;;;;;;;3.30;1.92;;;;;;;;;;5031699;28;20231;-51
2022/06/21 07:27:30;;;;;;;4.60;2.13;;;;;;;;;;5022057;28;20228;-52
2022/06/21 07:29:59;;;;;;;4.03;1.85;;;;;;;;;;5034080;28;20573;-51
2022/06/21 07:32:28;;;;;;;5.75;3.08;;;;;;;;;;5026888;28;20537;-51
2022/06/21 07:34:57;;;;;;;6.47;1.83;;;;;;;;;;5018103;28;20238;-51
2022/06/21 07:37:27;;;;;;;6.57;2.33;;;;;;;;;;5025185;28;20633;-51
2022/06/21 07:39:57;;;;;;;4.28;1.92;;;;;;;;;;5038637;28;20240;-51
2022/06/21 07:42:25;;;;;;;2.75;1.75;;;;;;;;;;5037642;28;20703;-52
2022/06/21 07:44:55;;;;;;;3.40;1.90;;;;;;;;;;5041238;28;20228;-51
2022/06/21 07:47:24;;;;;;;5.22;2.10;;;;;;;;;;5031904;28;20238;-52
2022/06/21 07:49:52;;;;;;;3.85;1.73;;;;;;;;;;5037236;28;20235;-51
2022/06/21 07:52:21;;;;;;;3.13;1.60;;;;;;;;;;5040298;28;20610;-53
2022/06/21 07:54:52;;;;;;;4.43;2.05;;;;;;;;;;5045411;28;20654;-51
2022/06/21 07:57:20;;;;;;;2.95;1.80;;;;;;;;;;5047972;28;20235;-51
2022/06/21 07:59:48;;;;;;;3.50;2.03;;;;;;;;;;5046784;28;20242;-51
2022/06/21 08:07:52;;;;;;;4.90;1.88;;;;;;;;;;5006309;28;20329;-52
2022/06/21 08:10:22;;;;;;;4.45;2.03;;;;;;;;;;5037982;28;20239;-52
2022/06/21 08:12:49;;;;;;;2.10;1.85;;;;;;;;;;5035694;28;20230;-52
2022/06/21 08:15:15;;;;;;;5.50;1.50;;;;;;;;;;5032701;28;20228;-52
2022/06/21 08:17:45;;;;;;;3.55;1.77;;;;;;;;;;5037225;28;20229;-52
2022/06/21 08:20:15;;;;;;;4.95;1.92;;;;;;;;;;5030613;28;20252;-52
2022/06/21 08:22:44;;;;;;;3.92;1.73;;;;;;;;;;5044533;28;20232;-52
2022/06/21 08:25:15;;;;;;;1.80;1.02;;;;;;;;;;5040906;28;20227;-54
2022/06/21 08:27:48;;;;;;;3.67;1.20;;;;;;;;;;5038065;28;20239;-52
2022/06/21 08:30:16;;;;;;;3.03;1.55;;;;;;;;;;5042334;28;20621;-52
2022/06/21 08:32:46;;;;;;;3.30;1.30;;;;;;;;;;5047230;28;20238;-51
2022/06/21 08:35:17;;;;;;;3.53;1.27;;;;;;;;;;5034930;28;20228;-51
2022/06/21 08:37:46;;;;;;;3.75;1.70;;;;;;;;;;5042560;28;20394;-53
2022/06/21 08:40:22;;;;;;;3.13;1.58;;;;;;;;;;5028353;28;20715;-52
2022/06/21 08:43:03;;;;;;;2.95;1.42;;;;;;;;;;5032083;28;20238;-52
2022/06/21 08:45:44;;;;;;;1.15;1.05;;;;;;;;;;5034253;28;20699;-52
2022/06/21 08:48:21;;;;;;;3.53;1.98;;;;;;;;;;5040900;28;20603;-52
2022/06/21 08:50:52;;;;;;;3.50;1.00;;;;;;;;;;5035593;28;20310;-52
2022/06/21 08:53:29;;;;;;;5.15;1.52;;;;;;;;;;5032852;28;20358;-52
2022/06/21 08:55:58;;;;;;;2.80;1.30;;;;;;;;;;5034989;28;20824;-51
2022/06/21 08:58:33;;;;;;;2.80;1.45;;;;;;;;;;5042853;28;20238;-53
2022/06/21 09:01:03;;;;;;;3.05;1.30;;;;;;;;;;5039699;28;20227;-51
2022/06/21 09:03:39;;;;;;;4.78;1.50;;;;;;;;;;5028056;28;20243;-51
2022/06/21 09:06:14;;;;;;;5.25;1.75;;;;;;;;;;5029480;28;20220;-52
2022/06/21 09:08:47;;;;;;;3.33;1.67;;;;;;;;;;5021794;28;20236;-52
2022/06/21 09:11:20;;;;;;;3.67;1.30;;;;;;;;;;5042067;28;20438;-53
2022/06/21 09:13:59;;;;;;;5.38;1.40;;;;;;;;;;5041183;28;20722;-52
2022/06/21 09:16:27;;;;;;;1.88;1.20;;;;;;;;;;5041166;28;20232;-53
2022/06/21 09:19:01;;;;;;;2.40;1.10;;;;;;;;;;5033046;28;20470;-52
2022/06/21 09:21:32;;;;;;;2.75;1.30;;;;;;;;;;5050629;28;20234;-51
2022/06/21 09:24:00;;;;;;;2.75;1.58;;;;;;;;;;5040557;28;20350;-51
2022/06/21 09:26:33;;;;;;;2.22;1.60;;;;;;;;;;5053043;28;20738;-50
2022/06/21 09:29:08;;;;;;;3.05;1.38;;;;;;;;;;5041837;28;20236;-51
2022/06/21 09:31:51;;;;;;;2.75;1.50;;;;;;;;;;5043540;28;20243;-51
2022/06/21 09:34:23;;;;;;;2.70;1.17;;;;;;;;;;5037456;28;20316;-51
2022/06/21 09:36:55;;;;;;;3.50;1.42;;;;;;;;;;5041945;28;20229;-51
2022/06/21 09:39:25;;;;;;;2.85;1.33;;;;;;;;;;5034892;28;20232;-51
2022/06/21 09:41:55;;;;;;;5.07;1.50;;;;;;;;;;5037188;28;20729;-51
2022/06/21 09:44:28;;;;;;;3.53;1.40;;;;;;;;;;5039756;28;20242;-52
2022/06/21 09:46:56;;;;;;;3.20;1.58;;;;;;;;;;5045821;28;20247;-52
2022/06/21 09:49:33;;;;;;;3.05;1.52;;;;;;;;;;5040239;28;20228;-52
2022/06/21 09:52:04;;;;;;;2.45;1.50;;;;;;;;;;5045718;28;20231;-51
2022/06/21 09:54:33;;;;;;;1.70;1.08;;;;;;;;;;5026904;28;20241;-51
2022/06/21 09:57:06;;;;;;;1.88;0.95;;;;;;;;;;5037597;28;20224;-54
2022/06/21 09:59:37;;;;;;;3.80;1.45;;;;;;;;;;5022294;28;20232;-52
2022/06/21 10:02:06;;;;;;;5.20;1.00;;;;;;;;;;5026146;28;20313;-52
2022/06/21 10:04:37;;;;;;;1.55;1.13;;;;;;;;;;5034466;28;20707;-52
2022/06/21 10:07:09;;;;;;;3.13;1.25;;;;;;;;;;5040202;28;20961;-51
2022/06/21 10:09:43;;;;;;;2.53;1.08;;;;;;;;;;5037643;28;20231;-52
2022/06/21 10:12:14;;;;;;;2.75;1.35;;;;;;;;;;5026257;28;20232;-52
2022/06/21 10:14:51;;;;;;;2.88;1.40;;;;;;;;;;5021646;28;20240;-52
2022/06/21 10:17:29;;;;;;;1.13;0.90;;;;;;;;;;5033527;28;20654;-52
2022/06/21 10:20:04;;;;;;;1.50;1.38;;;;;;;;;;5026297;28;20258;-52
2022/06/21 10:22:34;;;;;;;2.47;1.33;;;;;;;;;;5043031;28;20227;-52
2022/06/21 10:25:21;;;;;;;1.15;1.00;;;;;;;;;;5038829;28;20319;-51
2022/06/21 10:28:03;;;;;;;6.32;1.85;;;;;;;;;;5029944;28;20309;-52
2022/06/21 10:30:56;;;;;;;3.22;1.38;;;;;;;;;;5021709;28;20228;-53
2022/06/21 10:33:44;;;;;;;1.10;0.98;;;;;;;;;;5010954;28;21006;-51
2022/06/21 10:36:16;;;;;;;4.13;1.30;;;;;;;;;;5020869;28;20228;-50
2022/06/21 10:38:52;;;;;;;2.00;0.95;;;;;;;;;;5019703;28;20225;-51
2022/06/21 10:41:26;;;;;;;2.13;1.05;;;;;;;;;;5034123;28;20227;-52
2022/06/21 10:44:11;;;;;;;2.13;1.05;;;;;;;;;;5033247;28;20251;-51
2022/06/21 10:46:38;;;;;;;2.25;1.30;;;;;;;;;;5042765;28;20233;-53
2022/06/21 10:49:15;;;;;;;2.55;1.42;;;;;;;;;;5018580;28;20268;-52
2022/06/21 10:51:48;;;;;;;1.95;1.27;;;;;;;;;;5027551;28;20231;-52
2022/06/21 10:54:22;;;;;;;0.93;0.80;;;;;;;;;;5029783;28;20296;-52
2022/06/21 10:57:11;;;;;;;4.90;1.30;;;;;;;;;;5015340;28;20228;-52
2022/06/21 11:02:37;;;;;;;2.42;0.88;;;;;;;;;;5024509;28;20235;-53
2022/06/21 11:05:08;;;;;;;2.08;0.95;;;;;;;;;;5034321;28;20621;-53
2022/06/21 11:07:39;;;;;;;2.65;1.45;;;;;;;;;;5034380;28;20246;-53
2022/06/21 11:10:11;;;;;;;1.77;0.98;;;;;;;;;;5034000;28;20232;-52
2022/06/21 11:12:56;;;;;;;2.20;1.15;;;;;;;;;;5039200;28;20239;-52
2022/06/21 11:15:29;;;;;;;2.70;1.48;;;;;;;;;;5033760;28;20717;-51
2022/06/21 11:18:02;;;;;;;2.58;0.88;;;;;;;;;;5045066;28;20235;-52
2022/06/21 11:20:33;;;;;;;4.18;1.58;;;;;;;;;;5044979;28;20242;-55
2022/06/21 11:23:05;;;;;;;5.93;2.00;;;;;;;;;;5040733;28;20228;-51
2022/06/21 11:25:36;;;;;;;9.20;1.42;;;;;;;;;;5031282;28;20229;-51
2022/06/21 11:28:10;;;;;;;3.00;1.15;;;;;;;;;;5038849;28;20250;-54
2022/06/21 11:30:45;;;;;;;4.38;1.33;;;;;;;;;;5045070;28;20231;-53
2022/06/21 11:33:15;;;;;;;1.75;0.77;;;;;;;;;;5044614;28;20689;-51
2022/06/21 11:35:45;;;;;;;4.07;1.10;;;;;;;;;;5034301;28;20714;-52
2022/06/21 11:38:24;;;;;;;1.92;0.90;;;;;;;;;;5026222;28;20239;-53
2022/06/21 11:40:54;;;;;;;3.22;1.52;;;;;;;;;;5032161;28;20238;-52
2022/06/21 11:43:30;;;;;;;1.55;1.08;;;;;;;;;;5045207;28;20250;-52
2022/06/21 11:45:59;;;;;;;3.47;1.33;;;;;;;;;;5036772;28;20244;-52
2022/06/21 11:48:46;;;;;;;1.58;1.00;;;;;;;;;;5036047;28;20240;-50
2022/06/21 11:51:26;;;;;;;1.23;0.88;;;;;;;;;;5026454;28;20258;-53
2022/06/21 11:53:55;;;;;;;4.10;0.88;;;;;;;;;;5031852;28;20269;-52
2022/06/21 11:56:23;;;;;;;2.88;1.20;;;;;;;;;;5040679;28;20224;-52
2022/06/21 11:58:54;;;;;;;1.95;1.00;;;;;;;;;;5045825;28;20232;-51
2022/06/21 12:01:23;;;;;;;4.70;1.00;;;;;;;;;;5046387;28;20224;-52
2022/06/21 12:04:01;;;;;;;2.75;1.25;;;;;;;;;;5040284;28;20236;-52
2022/06/21 12:06:30;;;;;;;2.60;1.10;;;;;;;;;;5040898;28;20231;-52
2022/06/21 12:09:01;;;;;;;2.50;1.10;;;;;;;;;;5046673;28;20246;-53
2022/06/21 12:11:33;;;;;;;3.40;1.17;;;;;;;;;;5045485;28;20338;-51
2022/06/21 12:14:09;;;;;;;2.55;1.13;;;;;;;;;;5050349;28;20232;-53
2022/06/21 12:16:39;;;;;;;3.25;1.20;;;;;;;;;;5031792;28;20235;-51
2022/06/21 12:19:07;;;;;;;2.17;0.80;;;;;;;;;;5037764;28;20236;-52
2022/06/21 12:21:36;;;;;;;2.72;1.15;;;;;;;;;;5036897;28;20835;-51
2022/06/21 12:24:05;;;;;;;1.42;0.95;;;;;;;;;;5027077;28;20232;-52
2022/06/21 12:26:33;;;;;;;1.30;0.90;;;;;;;;;;5033620;28;20235;-51
2022/06/21 12:29:00;;;;;;;1.17;0.55;;;;;;;;;;5026428;28;20310;-51
2022/06/21 12:31:30;;;;;;;1.98;0.90;;;;;;;;;;5036533;28;20257;-53
2022/06/21 12:33:58;;;;;;;2.72;1.15;;;;;;;;;;5040635;28;20246;-51
2022/06/21 12:36:31;;;;;;;3.00;1.17;;;;;;;;;;5035574;28;21054;-53
2022/06/21 12:39:00;;;;;;;3.17;1.00;;;;;;;;;;5039192;28;20485;-51
2022/06/21 12:41:34;;;;;;;1.85;1.15;;;;;;;;;;5044868;28;20327;-51
2022/06/21 12:44:07;;;;;;;1.98;0.80;;;;;;;;;;5039363;28;20248;-52
2022/06/21 12:46:38;;;;;;;1.13;0.90;;;;;;;;;;5028957;28;20228;-52
2022/06/21 12:49:13;;;;;;;1.42;0.80;;;;;;;;;;5034462;28;20233;-52
2022/06/21 12:51:44;;;;;;;1.73;0.77;;;;;;;;;;5029621;28;20235;-53
2022/06/21 12:54:19;;;;;;;2.15;1.27;;;;;;;;;;5028905;28;20825;-53
2022/06/21 12:56:53;;;;;;;1.30;0.60;;;;;;;;;;5029205;28;20239;-52
2022/06/21 12:59:27;;;;;;;1.00;0.70;;;;;;;;;;5033659;28;20235;-52
2022/06/21 13:01:56;;;;;;;1.55;0.98;;;;;;;;;;5030169;28;20232;-52
2022/06/21 13:04:36;;;;;;;1.38;0.80;;;;;;;;;;5039403;28;20247;-51
2022/06/21 13:07:17;;;;;;;1.17;0.82;;;;;;;;;;5038786;28;20248;-52
2022/06/21 13:10:00;;;;;;;2.05;0.93;;;;;;;;;;5037409;28;20251;-52
2022/06/21 13:12:44;;;;;;;2.25;1.02;;;;;;;;;;5027896;28;20236;-52
2022/06/21 13:15:27;;;;;;;0.95;0.70;;;;;;;;;;5029849;28;20231;-51
2022/06/21 13:18:11;;;;;;;1.88;0.70;;;;;;;;;;5036503;28;20318;-52
2022/06/21 13:20:42;;;;;;;2.22;1.00;;;;;;;;;;5028071;28;20236;-53
2022/06/21 13:23:12;;;;;;;3.35;1.10;;;;;;;;;;5031132;28;20236;-52
2022/06/21 13:25:49;;;;;;;1.35;0.68;;;;;;;;;;5030916;28;20290;-52
2022/06/21 13:28:44;;;;;;;4.90;1.17;;;;;;;;;;5034852;28;20301;-52
2022/06/21 13:31:15;;;;;;;2.05;0.75;;;;;;;;;;5004729;28;20229;-51
2022/06/21 13:33:52;;;;;;;1.63;1.08;;;;;;;;;;5029009;28;20227;-52
2022/06/21 13:36:24;;;;;;;2.60;1.13;;;;;;;;;;5021340;28;20224;-52
2022/06/21 13:38:53;;;;;;;1.38;0.85;;;;;;;;;;5023169;28;20233;-51
2022/06/21 13:44:10;;;;;;;2.70;0.90;;;;;;;;;;5022044;28;20248;-51
2022/06/21 13:46:38;;;;;;;2.75;1.10;;;;;;;;;;5026766;28;20234;-52
2022/06/21 13:49:14;;;;;;;3.80;0.90;;;;;;;;;;5029031;28;20236;-50
2022/06/21 13:51:44;;;;;;;1.48;1.02;;;;;;;;;;5026408;28;20239;-53
2022/06/21 13:54:15;;;;;;;3.22;1.55;;;;;;;;;;5022964;28;20239;-53
2022/06/21 13:56:46;;;;;;;2.03;1.00;;;;;;;;;;5031592;28;20239;-54
2022/06/21 13:59:14;;;;;;;1.30;0.70;;;;;;;;;;5020617;28;20232;-52
2022/06/21 14:01:42;;;;;;;3.33;1.05;;;;;;;;;;5026021;28;20228;-52
2022/06/21 14:04:15;;;;;;;0.60;0.55;;;;;;;;;;5038416;28;20264;-52
2022/06/21 14:06:48;;;;;;;3.33;0.90;;;;;;;;;;5036278;28;20706;-53
2022/06/21 14:09:19;;;;;;;2.78;0.80;;;;;;;;;;5039443;28;20239;-52
2022/06/21 14:11:49;;;;;;;2.63;1.02;;;;;;;;;;5032389;28;20239;-52
2022/06/21 14:14:20;;;;;;;2.40;1.00;;;;;;;;;;5024518;28;20243;-51
2022/06/21 14:16:49;;;;;;;2.03;1.10;;;;;;;;;;5040885;28;20224;-51
2022/06/21 14:19:20;;;;;;;4.20;1.05;;;;;;;;;;5017713;28;20592;-51
2022/06/21 14:21:49;;;;;;;3.22;0.85;;;;;;;;;;5029991;28;20894;-52
2022/06/21 14:24:18;;;;;;;1.33;1.00;;;;;;;;;;5031802;28;20323;-50
2022/06/21 14:26:47;;;;;;;3.28;1.00;;;;;;;;;;5016092;28;20229;-51
2022/06/21 14:29:19;;;;;;;1.92;1.13;;;;;;;;;;5023731;28;20243;-51
2022/06/21 14:31:46;;;;;;;1.88;0.70;;;;;;;;;;5019565;28;20236;-52
2022/06/21 14:34:15;;;;;;;1.65;0.95;;;;;;;;;;5038351;28;20227;-52
2022/06/21 14:36:47;;;;;;;2.03;0.75;;;;;;;;;;5026234;28;20255;-52
2022/06/21 14:39:19;;;;;;;1.55;0.93;;;;;;;;;;5034624;28;20289;-52
2022/06/21 14:41:54;;;;;;;3.08;1.40;;;;;;;;;;5033461;28;20263;-51
2022/06/21 14:44:24;;;;;;;1.77;0.82;;;;;;;;;;5040116;28;20246;-52
2022/06/21 14:46:55;;;;;;;1.48;1.00;;;;;;;;;;5024528;28;20224;-53
2022/06/21 14:49:24;;;;;;;2.22;0.75;;;;;;;;;;5030189;28;20236;-51
2022/06/21 14:51:54;;;;;;;1.75;0.70;;;;;;;;;;5029142;28;20236;-51
2022/06/21 14:54:31;;;;;;;1.20;0.52;;;;;;;;;;5034928;28;20233;-52
2022/06/21 14:57:02;;;;;;;1.40;0.65;;;;;;;;;;5033769;28;20527;-51
2022/06/21 14:59:45;;;;;;;1.70;0.80;;;;;;;;;;5035963;28;20331;-51
2022/06/21 15:02:23;;;;;;;1.20;0.90;;;;;;;;;;5030657;28;20224;-52
2022/06/21 15:04:51;;;;;;;0.88;0.60;;;;;;;;;;5031780;28;20236;-53
2022/06/21 15:07:25;;;;;;;2.47;0.98;;;;;;;;;;5025101;28;20232;-51
2022/06/21 15:09:53;;;;;;;1.20;0.98;;;;;;;;;;5031504;28;20293;-52
2022/06/21 15:12:21;;;;;;;1.15;0.70;;;;;;;;;;5023829;28;20792;-53
2022/06/21 15:14:52;;;;;;;2.25;1.17;;;;;;;;;;5036851;28;20655;-54
2022/06/21 15:17:21;;;;;;;3.30;1.58;;;;;;;;;;5023844;28;20454;-54
2022/06/21 15:19:55;;;;;;;2.50;1.40;;;;;;;;;;5026166;28;20323;-51